createdAt,value
2018-12-11T00:02:03.654Z,4.60
2018-12-11T00:04:30.223Z,3.90
2018-12-11T00:06:56.669Z,3.73
2018-12-11T00:09:23.137Z,3.10
2018-12-11T00:11:50.640Z,3.87
2018-12-11T00:14:17.197Z,4.00
2018-12-11T00:16:43.937Z,3.70
2018-12-11T00:19:10.509Z,4.03
2018-12-11T00:21:37.121Z,3.43
2018-12-11T00:24:03.806Z,4.13
2018-12-11T00:26:30.490Z,4.17
2018-12-11T00:28:57.063Z,4.03
2018-12-11T00:31:23.566Z,4.50
2018-12-11T00:33:50.146Z,3.80
2018-12-11T00:36:16.754Z,4.90
2018-12-11T00:38:43.348Z,4.23
2018-12-11T00:41:10.006Z,4.00
2018-12-11T00:43:36.515Z,4.00
2018-12-11T00:46:03.235Z,3.40
2018-12-11T00:48:30.696Z,3.90
2018-12-11T00:50:57.406Z,3.33
2018-12-11T00:53:23.969Z,3.93
2018-12-11T00:55:50.467Z,3.47
2018-12-11T00:58:16.939Z,4.00
2018-12-11T01:00:44.278Z,4.13
2018-12-11T01:03:12.450Z,4.43
2018-12-11T01:05:39.047Z,4.53
2018-12-11T01:08:06.434Z,4.60
2018-12-11T01:10:33.041Z,5.37
2018-12-11T01:12:59.605Z,4.30
2018-12-11T01:15:30.863Z,3.77
2018-12-11T01:17:57.764Z,5.37
2018-12-11T01:20:24.229Z,3.90
2018-12-11T01:22:50.767Z,3.30
2018-12-11T01:25:17.251Z,3.50
2018-12-11T01:27:43.858Z,3.73
2018-12-11T01:30:11.146Z,4.80
2018-12-11T01:32:37.778Z,4.77
2018-12-11T01:35:04.465Z,3.60
2018-12-11T01:37:31.290Z,3.50
2018-12-11T01:39:58.459Z,3.20
2018-12-11T01:42:25.082Z,3.10
2018-12-11T01:44:51.649Z,3.63
2018-12-11T01:47:18.257Z,3.87
2018-12-11T01:49:44.730Z,2.90
2018-12-11T01:52:11.325Z,3.10
2018-12-11T01:54:38.387Z,3.00
2018-12-11T01:57:05.124Z,2.90
2018-12-11T01:59:31.694Z,3.33
2018-12-11T02:01:58.113Z,3.40
2018-12-11T02:04:24.565Z,3.37
2018-12-11T02:06:51.083Z,3.93
2018-12-11T02:09:17.551Z,3.60
2018-12-11T02:11:43.947Z,4.10
2018-12-11T02:14:10.417Z,3.20
2018-12-11T02:16:37.019Z,3.23
2018-12-11T02:19:04.000Z,4.40
2018-12-11T02:21:30.518Z,2.70
2018-12-11T02:23:56.994Z,2.47
2018-12-11T02:26:23.599Z,3.53
2018-12-11T02:28:50.177Z,3.77
2018-12-11T02:31:16.818Z,3.37
2018-12-11T02:33:43.382Z,2.27
2018-12-11T02:36:10.078Z,3.00
2018-12-11T02:38:36.754Z,3.90
2018-12-11T02:41:03.466Z,4.60
2018-12-11T02:43:30.027Z,2.87
2018-12-11T02:45:56.621Z,3.87
2018-12-11T02:48:23.337Z,2.80
2018-12-11T02:50:50.534Z,3.20
2018-12-11T02:53:17.498Z,3.10
2018-12-11T02:55:44.162Z,2.67
2018-12-11T02:58:10.966Z,2.37
2018-12-11T03:00:37.577Z,2.77
2018-12-11T03:03:06.167Z,2.63
2018-12-11T03:05:32.667Z,3.50
2018-12-11T03:07:59.299Z,2.50
2018-12-11T03:10:25.992Z,3.13
2018-12-11T03:12:52.556Z,2.50
2018-12-11T03:15:19.570Z,2.87
2018-12-11T03:17:47.145Z,3.57
2018-12-11T03:20:13.743Z,3.07
2018-12-11T03:22:41.910Z,3.23
2018-12-11T03:25:08.474Z,2.60
2018-12-11T03:27:35.148Z,1.80
2018-12-11T03:30:02.987Z,3.00
2018-12-11T03:32:29.577Z,2.67
2018-12-11T03:34:56.970Z,3.10
2018-12-11T03:37:23.666Z,2.10
2018-12-11T03:39:50.365Z,2.90
2018-12-11T03:42:18.643Z,2.20
2018-12-11T03:44:45.346Z,3.43
2018-12-11T03:47:11.833Z,2.93
2018-12-11T03:49:38.518Z,2.40
2018-12-11T03:52:05.976Z,2.37
2018-12-11T03:54:32.537Z,2.73
2018-12-11T03:56:59.132Z,3.70
2018-12-11T03:59:25.698Z,2.63
2018-12-11T04:01:52.450Z,3.10
2018-12-11T04:04:19.118Z,2.73
2018-12-11T04:06:45.758Z,2.17
2018-12-11T04:09:12.434Z,2.30
2018-12-11T04:11:38.931Z,2.60
2018-12-11T04:14:05.699Z,1.90
2018-12-11T04:16:32.307Z,2.47
2018-12-11T04:18:58.765Z,2.37
2018-12-11T04:21:25.355Z,2.30
2018-12-11T04:23:51.930Z,2.40
2018-12-11T04:26:18.541Z,2.50
2018-12-11T04:28:45.112Z,2.13
2018-12-11T04:31:11.785Z,2.40
2018-12-11T04:33:38.362Z,2.00
2018-12-11T04:36:05.056Z,2.57
2018-12-11T04:38:31.626Z,2.50
2018-12-11T04:40:58.321Z,3.57
2018-12-11T04:43:24.882Z,2.20
2018-12-11T04:45:51.470Z,2.33
2018-12-11T04:48:18.278Z,1.93
2018-12-11T04:50:44.990Z,1.93
2018-12-11T04:53:12.017Z,2.47
2018-12-11T04:55:40.205Z,3.03
2018-12-11T04:58:08.474Z,2.83
2018-12-11T05:00:34.963Z,2.90
2018-12-11T05:03:01.745Z,1.83
2018-12-11T05:05:28.238Z,2.10
2018-12-11T05:07:54.999Z,3.00
2018-12-11T05:10:21.689Z,2.30
2018-12-11T05:12:48.282Z,2.67
2018-12-11T05:15:14.890Z,2.27
2018-12-11T05:17:43.081Z,1.97
2018-12-11T05:20:09.677Z,2.43
2018-12-11T05:22:36.341Z,2.60
2018-12-11T05:25:03.867Z,2.30
2018-12-11T05:27:30.322Z,2.00
2018-12-11T05:29:58.626Z,3.00
2018-12-11T05:32:25.202Z,1.97
2018-12-11T05:34:51.682Z,2.50
2018-12-11T05:37:19.801Z,1.87
2018-12-11T05:39:46.266Z,2.97
2018-12-11T05:42:12.755Z,3.10
2018-12-11T05:44:40.238Z,2.03
2018-12-11T05:47:06.945Z,2.23
2018-12-11T05:49:33.573Z,1.90
2018-12-11T05:52:00.191Z,1.80
2018-12-11T05:54:26.647Z,1.80
2018-12-11T05:56:53.284Z,2.30
2018-12-11T05:59:19.801Z,2.47
2018-12-11T06:01:46.421Z,2.60
2018-12-11T06:04:13.274Z,2.60
2018-12-11T06:06:39.987Z,1.90
2018-12-11T06:09:06.778Z,1.93
2018-12-11T06:11:33.426Z,1.77
2018-12-11T06:14:01.264Z,2.20
2018-12-11T06:16:28.251Z,1.53
2018-12-11T06:18:54.734Z,2.03
2018-12-11T06:21:21.449Z,1.90
2018-12-11T06:23:48.135Z,1.80
2018-12-11T06:26:14.695Z,1.77
2018-12-11T06:28:41.267Z,1.87
2018-12-11T06:31:07.881Z,2.00
2018-12-11T06:33:34.353Z,2.43
2018-12-11T06:36:05.314Z,1.80
2018-12-11T06:38:31.878Z,2.07
2018-12-11T06:40:58.643Z,2.13
2018-12-11T06:43:25.228Z,2.13
2018-12-11T06:45:52.001Z,2.23
2018-12-11T06:48:18.951Z,2.47
2018-12-11T06:50:45.542Z,1.50
2018-12-11T06:53:12.238Z,2.03
2018-12-11T06:55:38.812Z,2.40
2018-12-11T06:58:06.214Z,1.93
2018-12-11T07:00:32.780Z,1.67
2018-12-11T07:02:59.370Z,2.00
2018-12-11T07:05:25.846Z,1.40
2018-12-11T07:07:52.433Z,2.43
2018-12-11T07:10:19.101Z,1.80
2018-12-11T07:12:45.699Z,2.60
2018-12-11T07:15:12.393Z,2.17
2018-12-11T07:17:38.883Z,1.83
2018-12-11T07:20:06.313Z,1.70
2018-12-11T07:22:34.336Z,2.37
2018-12-11T07:25:00.966Z,1.80
2018-12-11T07:27:27.510Z,1.70
2018-12-11T07:29:53.969Z,2.13
2018-12-11T07:32:20.450Z,1.93
2018-12-11T07:34:46.811Z,1.73
2018-12-11T07:37:13.318Z,2.07
2018-12-11T07:39:39.982Z,1.80
2018-12-11T07:42:06.577Z,2.13
2018-12-11T07:44:33.151Z,1.53
2018-12-11T07:46:59.614Z,2.80
2018-12-11T07:49:27.102Z,2.67
2018-12-11T07:51:53.790Z,1.70
2018-12-11T07:54:20.373Z,1.47
2018-12-11T07:56:46.969Z,3.23
2018-12-11T07:59:13.541Z,1.80
2018-12-11T08:01:40.308Z,1.77
2018-12-11T08:04:06.970Z,2.10
2018-12-11T08:06:33.565Z,1.60
2018-12-11T08:09:00.274Z,1.60
2018-12-11T08:11:26.962Z,1.97
2018-12-11T08:13:53.529Z,1.90
2018-12-11T08:16:20.341Z,1.87
2018-12-11T08:18:46.822Z,1.70
2018-12-11T08:21:14.324Z,1.70
2018-12-11T08:23:40.903Z,1.73
2018-12-11T08:26:07.388Z,1.97
2018-12-11T08:28:33.963Z,2.03
2018-12-11T08:31:00.530Z,1.70
2018-12-11T08:33:27.042Z,2.10
2018-12-11T08:35:53.737Z,1.60
2018-12-11T08:38:20.381Z,1.83
2018-12-11T08:40:46.958Z,1.70
2018-12-11T08:43:13.570Z,1.97
2018-12-11T08:45:40.131Z,1.70
2018-12-11T08:48:06.620Z,2.30
2018-12-11T08:50:33.368Z,2.70
2018-12-11T08:53:00.067Z,1.70
2018-12-11T08:55:26.873Z,2.30
2018-12-11T08:57:53.568Z,1.80
2018-12-11T09:00:20.261Z,2.23
2018-12-11T09:02:46.767Z,2.50
2018-12-11T09:05:13.249Z,2.33
2018-12-11T09:07:39.779Z,1.90
2018-12-11T09:10:06.583Z,1.90
2018-12-11T09:12:33.071Z,2.83
2018-12-11T09:14:59.528Z,2.10
2018-12-11T09:17:26.126Z,2.17
2018-12-11T09:19:52.586Z,2.60
2018-12-11T09:22:19.304Z,2.20
2018-12-11T09:24:45.871Z,1.53
2018-12-11T09:27:12.587Z,2.20
2018-12-11T09:29:39.177Z,2.00
2018-12-11T09:32:05.732Z,1.83
2018-12-11T09:34:32.264Z,1.97
2018-12-11T09:36:58.769Z,1.80
2018-12-11T09:39:25.232Z,1.80
2018-12-11T09:41:51.693Z,1.60
2018-12-11T09:44:18.325Z,2.63
2018-12-11T09:46:44.783Z,1.77
2018-12-11T09:49:11.390Z,1.90
2018-12-11T09:51:37.875Z,2.00
2018-12-11T09:54:04.476Z,1.90
2018-12-11T09:56:30.959Z,1.90
2018-12-11T09:58:57.450Z,1.80
2018-12-11T10:01:23.998Z,2.47
2018-12-11T10:03:50.610Z,1.90
2018-12-11T10:06:17.099Z,3.30
2018-12-11T10:08:43.716Z,2.20
2018-12-11T10:11:10.483Z,2.30
2018-12-11T10:13:37.010Z,2.33
2018-12-11T10:16:03.574Z,2.40
2018-12-11T10:18:30.170Z,2.50
2018-12-11T10:20:56.775Z,1.87
2018-12-11T10:23:23.907Z,2.40
2018-12-11T10:25:51.175Z,2.30
2018-12-11T10:28:17.764Z,2.40
2018-12-11T10:30:46.922Z,2.83
2018-12-11T10:33:14.335Z,2.50
2018-12-11T10:35:40.952Z,2.20
2018-12-11T10:38:07.666Z,2.97
2018-12-11T10:40:34.238Z,2.10
2018-12-11T10:43:00.783Z,2.97
2018-12-11T10:45:27.286Z,3.50
2018-12-11T10:47:53.943Z,2.47
2018-12-11T10:50:20.717Z,2.73
2018-12-11T10:52:47.294Z,2.30
2018-12-11T10:55:14.111Z,2.50
2018-12-11T10:57:40.666Z,2.43
2018-12-11T11:03:04.233Z,2.40
2018-12-11T11:05:30.843Z,2.30
2018-12-11T11:07:57.439Z,2.67
2018-12-11T11:10:23.925Z,2.83
2018-12-11T11:12:50.417Z,2.70
2018-12-11T11:15:17.070Z,2.37
2018-12-11T11:17:43.544Z,2.80
2018-12-11T11:20:10.053Z,2.53
2018-12-11T11:22:36.656Z,2.50
2018-12-11T11:25:04.839Z,3.57
2018-12-11T11:27:31.230Z,3.27
2018-12-11T11:29:57.706Z,3.30
2018-12-11T11:32:24.172Z,3.47
2018-12-11T11:34:50.663Z,2.57
2018-12-11T11:37:17.032Z,3.63
2018-12-11T11:39:43.530Z,2.60
2018-12-11T11:42:09.954Z,2.80
2018-12-11T11:44:36.511Z,2.73
2018-12-11T11:47:03.290Z,3.40
2018-12-11T11:49:29.885Z,2.83
2018-12-11T11:51:56.345Z,3.33
2018-12-11T11:54:22.837Z,3.07
2018-12-11T11:56:49.417Z,4.27
2018-12-11T11:59:15.918Z,3.10
2018-12-11T12:01:42.398Z,3.60
2018-12-11T12:04:08.922Z,2.83
2018-12-11T12:06:35.387Z,3.13
2018-12-11T12:09:03.839Z,3.27
2018-12-11T12:11:30.368Z,3.30
2018-12-11T12:13:56.853Z,3.30
2018-12-11T12:16:23.440Z,3.20
2018-12-11T12:18:49.933Z,2.77
2018-12-11T12:21:16.519Z,2.50
2018-12-11T12:23:43.025Z,3.30
2018-12-11T12:26:09.501Z,2.57
2018-12-11T12:28:35.998Z,3.10
2018-12-11T12:31:02.703Z,2.67
2018-12-11T12:33:29.310Z,2.10
2018-12-11T12:35:55.830Z,2.40
2018-12-11T12:38:22.389Z,2.00
2018-12-11T12:40:48.848Z,2.03
2018-12-11T12:43:15.569Z,2.30
2018-12-11T12:45:42.158Z,2.50
2018-12-11T12:48:08.623Z,2.30
2018-12-11T12:50:35.239Z,1.73
2018-12-11T12:53:01.705Z,1.90
2018-12-11T12:55:28.292Z,1.73
2018-12-11T12:57:54.750Z,2.00
2018-12-11T13:00:21.239Z,1.60
2018-12-11T13:02:50.120Z,1.83
2018-12-11T13:05:16.552Z,1.80
2018-12-11T13:07:43.137Z,2.07
2018-12-11T13:10:09.678Z,1.80
2018-12-11T13:12:36.462Z,1.60
2018-12-11T13:15:07.334Z,1.87
2018-12-11T13:17:33.164Z,1.90
2018-12-11T13:19:59.687Z,1.67
2018-12-11T13:22:26.146Z,1.83
2018-12-11T13:24:52.650Z,1.90
2018-12-11T13:27:19.107Z,1.97
2018-12-11T13:29:45.606Z,2.43
2018-12-11T13:32:12.096Z,2.07
2018-12-11T13:34:38.656Z,2.13
2018-12-11T13:37:05.362Z,2.33
2018-12-11T13:39:31.980Z,1.90
2018-12-11T13:41:58.911Z,1.90
2018-12-11T13:44:25.728Z,1.70
2018-12-11T13:46:52.726Z,1.87
2018-12-11T13:49:19.568Z,1.70
2018-12-11T13:51:46.109Z,1.80
2018-12-11T13:54:12.710Z,1.53
2018-12-11T13:56:39.209Z,1.70
2018-12-11T13:59:05.965Z,2.00
2018-12-11T14:01:32.553Z,1.70
2018-12-11T14:03:59.058Z,1.83
2018-12-11T14:06:25.524Z,2.10
2018-12-11T14:08:52.034Z,2.10
2018-12-11T14:11:18.523Z,2.00
2018-12-11T14:13:45.030Z,2.00
2018-12-11T14:16:11.563Z,1.83
2018-12-11T14:18:38.103Z,1.90
2018-12-11T14:21:04.764Z,2.10
2018-12-11T14:23:31.225Z,2.00
2018-12-11T14:25:57.727Z,2.00
2018-12-11T14:28:24.197Z,1.80
2018-12-11T14:30:50.691Z,1.60
2018-12-11T14:33:17.155Z,1.87
2018-12-11T14:35:43.687Z,2.37
2018-12-11T14:38:12.847Z,1.60
2018-12-11T14:40:39.459Z,2.13
2018-12-11T14:43:06.029Z,2.23
2018-12-11T14:45:32.547Z,2.27
2018-12-11T14:47:59.214Z,2.57
2018-12-11T14:50:26.744Z,2.17
2018-12-11T14:52:53.305Z,2.27
2018-12-11T14:55:20.016Z,2.13
2018-12-11T14:57:46.627Z,2.37
2018-12-11T15:00:13.086Z,2.50
2018-12-11T15:02:40.013Z,2.17
2018-12-11T15:05:07.308Z,2.60
2018-12-11T15:07:33.955Z,2.60
2018-12-11T15:10:00.774Z,2.87
2018-12-11T15:12:27.231Z,2.70
2018-12-11T15:14:53.945Z,2.50
2018-12-11T15:17:20.411Z,3.10
2018-12-11T15:19:46.938Z,2.50
2018-12-11T15:22:13.391Z,2.47
2018-12-11T15:24:40.009Z,2.93
2018-12-11T15:27:07.037Z,2.80
2018-12-11T15:29:33.737Z,2.40
2018-12-11T15:32:01.875Z,2.70
2018-12-11T15:34:28.438Z,2.60
2018-12-11T15:36:54.945Z,3.13
2018-12-11T15:39:21.510Z,3.00
2018-12-11T15:41:48.019Z,2.80
2018-12-11T15:44:14.579Z,2.50
2018-12-11T15:46:41.422Z,3.60
2018-12-11T15:49:07.911Z,3.60
2018-12-11T15:51:34.548Z,3.30
2018-12-11T15:54:01.069Z,3.30
2018-12-11T15:56:27.609Z,2.87
2018-12-11T15:58:54.193Z,2.90
2018-12-11T16:01:20.663Z,2.77
2018-12-11T16:03:47.317Z,3.90
2018-12-11T16:06:14.068Z,2.57
2018-12-11T16:08:40.656Z,2.73
2018-12-11T16:11:07.032Z,3.03
2018-12-11T16:13:33.558Z,3.00
2018-12-11T16:16:00.018Z,2.67
2018-12-11T16:18:26.582Z,2.80
2018-12-11T16:20:53.121Z,2.67
2018-12-11T16:23:19.732Z,2.90
2018-12-11T16:25:46.368Z,2.67
2018-12-11T16:28:14.206Z,2.83
2018-12-11T16:30:40.765Z,3.00
2018-12-11T16:33:07.775Z,2.70
2018-12-11T16:35:34.304Z,2.90
2018-12-11T16:38:00.939Z,2.93
2018-12-11T16:40:27.475Z,2.60
2018-12-11T16:42:54.134Z,3.10
2018-12-11T16:45:20.646Z,2.87
2018-12-11T16:47:47.106Z,3.57
2018-12-11T16:50:13.599Z,3.03
2018-12-11T16:52:41.334Z,3.20
2018-12-11T16:55:08.002Z,3.10
2018-12-11T16:57:34.537Z,3.20
2018-12-11T17:00:01.059Z,2.70
2018-12-11T17:02:27.780Z,2.70
2018-12-11T17:04:54.346Z,2.87
2018-12-11T17:07:21.181Z,2.50
2018-12-11T17:09:47.666Z,2.80
2018-12-11T17:12:14.455Z,3.07
2018-12-11T17:14:41.025Z,3.30
2018-12-11T17:17:07.680Z,3.13
2018-12-11T17:19:34.534Z,3.70
2018-12-11T17:22:02.646Z,3.37
2018-12-11T17:24:29.335Z,3.60
2018-12-11T17:26:56.055Z,3.70
2018-12-11T17:29:24.474Z,2.90
2018-12-11T17:31:51.066Z,3.20
2018-12-11T17:34:17.602Z,3.40
2018-12-11T17:36:44.163Z,3.00
2018-12-11T17:39:10.779Z,3.03
2018-12-11T17:41:37.417Z,2.43
2018-12-11T17:44:03.926Z,2.47
2018-12-11T17:46:30.487Z,3.50
2018-12-11T17:48:57.063Z,2.57
2018-12-11T17:51:23.734Z,2.43
2018-12-11T17:53:50.366Z,2.30
2018-12-11T17:56:16.962Z,2.40
2018-12-11T17:58:43.579Z,2.90
2018-12-11T18:01:10.185Z,2.73
2018-12-11T18:03:36.620Z,2.70
2018-12-11T18:06:03.325Z,2.70
2018-12-11T18:08:29.789Z,2.50
2018-12-11T18:10:56.322Z,3.20
2018-12-11T18:13:22.937Z,3.63
2018-12-11T18:15:49.548Z,2.37
2018-12-11T18:18:16.010Z,2.90
2018-12-11T18:20:42.619Z,3.17
2018-12-11T18:23:09.079Z,2.33
2018-12-11T18:25:35.587Z,2.80
2018-12-11T18:28:02.303Z,2.83
2018-12-11T18:30:28.816Z,2.90
2018-12-11T18:32:55.297Z,3.33
2018-12-11T18:35:22.237Z,3.03
2018-12-11T18:37:48.701Z,4.47
2018-12-11T18:40:15.213Z,3.53
2018-12-11T18:42:41.722Z,4.70
2018-12-11T18:45:08.556Z,4.80
2018-12-11T18:47:35.094Z,3.23
2018-12-11T18:50:01.669Z,4.90
2018-12-11T18:52:28.194Z,3.00
2018-12-11T18:54:54.767Z,3.60
2018-12-11T18:57:28.392Z,2.97
2018-12-11T18:59:54.850Z,3.10
2018-12-11T19:02:21.350Z,3.33
2018-12-11T19:04:47.933Z,3.20
2018-12-11T19:07:14.683Z,2.67
2018-12-11T19:09:41.307Z,2.33
2018-12-11T19:12:07.822Z,3.33
2018-12-11T19:14:34.312Z,4.20
2018-12-11T19:17:01.135Z,2.87
2018-12-11T19:19:27.764Z,3.30
2018-12-11T19:21:54.258Z,2.93
2018-12-11T19:24:21.204Z,3.57
2018-12-11T19:26:47.706Z,2.50
2018-12-11T19:29:14.316Z,3.37
2018-12-11T19:31:41.488Z,2.87
2018-12-11T19:34:08.180Z,2.10
2018-12-11T19:36:34.662Z,2.40
2018-12-11T19:39:01.276Z,2.13
2018-12-11T19:41:27.845Z,2.40
2018-12-11T19:43:54.450Z,2.10
2018-12-11T19:46:21.042Z,2.67
2018-12-11T19:48:47.521Z,2.70
2018-12-11T19:51:14.154Z,3.10
2018-12-11T19:53:40.623Z,2.20
2018-12-11T19:56:07.178Z,2.90
2018-12-11T19:58:34.280Z,2.37
2018-12-11T20:01:01.095Z,2.70
2018-12-11T20:03:27.606Z,3.47
2018-12-11T20:05:54.087Z,3.27
2018-12-11T20:08:20.810Z,3.20
2018-12-11T20:10:49.350Z,3.50
2018-12-11T20:13:15.873Z,2.70
2018-12-11T20:15:42.482Z,2.60
2018-12-11T20:18:12.850Z,2.80
2018-12-11T20:20:37.838Z,3.40
2018-12-11T20:23:04.287Z,3.93
2018-12-11T20:25:31.083Z,3.93
2018-12-11T20:27:57.696Z,3.93
2018-12-11T20:30:24.316Z,3.87
2018-12-11T20:32:50.842Z,4.17
2018-12-11T20:35:17.379Z,3.57
2018-12-11T20:37:43.866Z,3.93
2018-12-11T20:40:10.397Z,4.27
2018-12-11T20:42:36.983Z,3.90
2018-12-11T20:45:04.260Z,3.97
2018-12-11T20:47:30.817Z,4.43
2018-12-11T20:49:57.333Z,4.00
2018-12-11T20:52:23.798Z,4.70
2018-12-11T20:54:50.515Z,4.23
2018-12-11T20:57:17.045Z,4.57
2018-12-11T20:59:43.699Z,4.53
2018-12-11T21:02:10.317Z,3.60
2018-12-11T21:04:36.825Z,4.97
2018-12-11T21:07:03.450Z,4.07
2018-12-11T21:09:29.955Z,4.83
2018-12-11T21:11:56.563Z,4.00
2018-12-11T21:14:23.155Z,3.80
2018-12-11T21:16:49.755Z,3.97
2018-12-11T21:19:16.700Z,3.93
2018-12-11T21:21:44.519Z,4.17
2018-12-11T21:24:11.414Z,4.17
2018-12-11T21:26:38.116Z,4.30
2018-12-11T21:29:04.709Z,4.47
2018-12-11T21:31:31.399Z,4.70
2018-12-11T21:33:58.042Z,5.00
2018-12-11T21:36:24.510Z,4.37
2018-12-11T21:38:51.069Z,4.87
2018-12-11T21:41:17.673Z,4.00
2018-12-11T21:43:44.244Z,3.80
2018-12-11T21:46:10.826Z,4.43
2018-12-11T21:48:37.435Z,3.80
2018-12-11T21:51:03.953Z,3.50
2018-12-11T21:53:30.533Z,3.87
2018-12-11T21:55:57.099Z,3.63
2018-12-11T21:58:23.831Z,3.40
2018-12-11T22:00:50.875Z,4.33
2018-12-11T22:03:17.723Z,4.43
2018-12-11T22:05:44.326Z,3.53
2018-12-11T22:08:10.913Z,3.40
2018-12-11T22:10:37.707Z,3.40
2018-12-11T22:13:04.178Z,3.60
2018-12-11T22:15:30.913Z,3.30
2018-12-11T22:17:57.579Z,3.40
2018-12-11T22:20:24.108Z,2.90
2018-12-11T22:22:50.573Z,4.17
2018-12-11T22:25:17.129Z,3.90
2018-12-11T22:27:43.619Z,4.47
2018-12-11T22:30:10.202Z,3.23
2018-12-11T22:32:36.685Z,3.63
2018-12-11T22:35:03.673Z,3.90
2018-12-11T22:37:30.159Z,3.80
2018-12-11T22:39:56.655Z,3.87
2018-12-11T22:42:23.217Z,3.67
2018-12-11T22:44:49.904Z,3.73
2018-12-11T22:47:16.394Z,3.50
2018-12-11T22:49:43.076Z,3.47
2018-12-11T22:52:09.661Z,3.63
2018-12-11T22:54:36.605Z,3.47
2018-12-11T22:57:04.202Z,3.07
2018-12-11T22:59:30.754Z,2.90
2018-12-11T23:01:57.469Z,3.20
2018-12-11T23:04:23.923Z,2.63
2018-12-11T23:06:50.427Z,2.60
2018-12-11T23:09:16.791Z,2.37
2018-12-11T23:11:43.335Z,2.30
2018-12-11T23:14:09.790Z,2.40
2018-12-11T23:16:36.373Z,2.57
2018-12-11T23:19:02.978Z,2.27
2018-12-11T23:21:29.479Z,1.97
2018-12-11T23:23:55.960Z,2.33
2018-12-11T23:26:22.630Z,2.30
2018-12-11T23:28:49.104Z,1.97
2018-12-11T23:31:15.590Z,2.03
2018-12-11T23:33:42.049Z,2.13
2018-12-11T23:36:08.558Z,2.50
2018-12-11T23:38:35.022Z,2.60
2018-12-11T23:41:01.527Z,1.90
2018-12-11T23:43:28.010Z,2.03
2018-12-11T23:45:54.602Z,2.50
2018-12-11T23:48:21.049Z,2.00
2018-12-11T23:50:47.554Z,2.10
2018-12-11T23:53:14.070Z,1.97
2018-12-11T23:55:40.690Z,2.30
2018-12-11T23:58:07.146Z,2.27
